Time;durP1;ratioP1;P1;durP2;ratioP2;P2;SDS_P1;SDS_P2;PMS_P1;PMS_P2;Temp;Humidity;BMP_temperature;BMP_pressure;BME280_temperature;BME280_humidity;BME280_pressure;Samples;Min_cycle;Max_cycle;Signal;HPM_P1;HPM_P2
2021/05/05 00:00:39;;;;;;;5.45;1.73;;;;;;;15.93;35.15;100782.06;5072292;28;20060;-79
2021/05/05 00:03:05;;;;;;;3.00;1.70;;;;;;;15.94;34.93;100780.09;5072223;28;20025;-79
2021/05/05 00:05:33;;;;;;;2.15;1.60;;;;;;;15.75;35.50;100775.22;5072241;28;20032;-80
2021/05/05 00:07:58;;;;;;;2.67;1.30;;;;;;;15.87;35.31;100777.97;5072208;28;20475;-79
2021/05/05 00:10:24;;;;;;;2.97;1.75;;;;;;;15.84;35.19;100781.38;5072151;28;20037;-79
2021/05/05 00:12:50;;;;;;;3.05;1.98;;;;;;;15.89;35.11;100778.41;5072358;28;20052;-80
2021/05/05 00:15:21;;;;;;;3.90;1.50;;;;;;;15.89;35.34;100781.16;5072043;28;20028;-80
2021/05/05 00:17:47;;;;;;;2.83;1.50;;;;;;;15.86;35.07;100784.59;5071983;28;20036;-80
2021/05/05 00:20:15;;;;;;;4.70;1.70;;;;;;;15.78;35.22;100782.78;5072151;28;20032;-79
2021/05/05 00:22:41;;;;;;;4.05;1.50;;;;;;;15.77;35.70;100772.91;5070919;28;20032;-80
2021/05/05 00:25:07;;;;;;;2.35;1.33;;;;;;;15.73;35.41;100775.56;5074298;28;20612;-80
2021/05/05 00:27:33;;;;;;;2.33;1.58;;;;;;;15.44;35.95;100779.34;5075709;28;20075;-80
2021/05/05 00:29:59;;;;;;;2.42;1.23;;;;;;;15.57;35.46;100790.34;5057633;28;20032;-80
2021/05/05 00:32:25;;;;;;;4.82;1.50;;;;;;;15.36;35.91;100787.72;5075657;28;20440;-80
2021/05/05 00:34:51;;;;;;;4.82;2.33;;;;;;;15.49;35.55;100781.88;5075689;28;20039;-80
2021/05/05 00:37:17;;;;;;;2.20;1.10;;;;;;;15.31;36.15;100788.75;5075303;28;20127;-79
2021/05/05 00:39:42;;;;;;;1.65;1.30;;;;;;;15.41;36.13;100792.97;5075571;28;20024;-80
2021/05/05 00:42:08;;;;;;;3.05;1.35;;;;;;;15.28;36.34;100794.94;5075461;28;20103;-79
2021/05/05 00:44:34;;;;;;;3.15;1.60;;;;;;;15.39;36.33;100796.09;5074192;28;20449;-79
2021/05/05 00:47:00;;;;;;;1.50;1.20;;;;;;;15.47;36.17;100802.63;5074136;28;20429;-80
2021/05/05 00:49:26;;;;;;;2.47;1.25;;;;;;;15.48;36.17;100810.53;5075366;28;20052;-80
2021/05/05 00:51:52;;;;;;;2.63;1.20;;;;;;;15.62;36.24;100803.91;5075335;28;20471;-79
2021/05/05 00:54:18;;;;;;;2.78;1.40;;;;;;;15.63;36.38;100809.06;5075174;28;20033;-80
2021/05/05 00:56:44;;;;;;;1.73;1.20;;;;;;;15.70;36.13;100802.97;5075175;28;20115;-80
2021/05/05 00:59:11;;;;;;;2.10;1.45;;;;;;;15.57;36.59;100813.19;5075142;28;20466;-80
2021/05/05 01:01:39;;;;;;;2.42;1.45;;;;;;;15.62;36.35;100810.22;5075210;28;20119;-80
2021/05/05 01:04:04;;;;;;;2.88;1.40;;;;;;;15.74;36.48;100814.94;5075156;28;20036;-80
2021/05/05 01:06:30;;;;;;;1.48;1.30;;;;;;;15.82;36.08;100811.25;5075094;28;20478;-80
2021/05/05 01:08:56;;;;;;;1.27;1.17;;;;;;;15.87;36.06;100819.28;5075159;28;20111;-79
2021/05/05 01:11:21;;;;;;;2.13;1.20;;;;;;;15.79;36.40;100806.41;5074974;28;20065;-80
2021/05/05 01:13:47;;;;;;;5.20;1.40;;;;;;;15.99;36.10;100810.19;5074999;28;20025;-80
2021/05/05 01:16:15;;;;;;;3.40;1.65;;;;;;;15.97;36.14;100804.22;5073656;28;20390;-79
2021/05/05 01:18:42;;;;;;;3.72;1.38;;;;;;;15.90;36.04;100812.28;5073584;28;20491;-79
2021/05/05 01:21:08;;;;;;;3.70;1.65;;;;;;;16.01;36.09;100814.19;5074774;28;20107;-79
2021/05/05 01:23:34;;;;;;;2.92;1.50;;;;;;;16.05;35.97;100812.34;5074872;28;20028;-80
2021/05/05 01:26:00;;;;;;;2.67;1.52;;;;;;;16.04;36.19;100820.97;5074756;28;20043;-79
2021/05/05 01:28:25;;;;;;;1.70;1.10;;;;;;;16.12;35.96;100817.28;5074640;28;20028;-80
2021/05/05 01:30:52;;;;;;;3.33;1.02;;;;;;;15.94;36.33;100824.19;5073421;28;20398;-79
2021/05/05 01:33:19;;;;;;;1.45;1.17;;;;;;;15.95;36.18;100820.31;5074498;28;20032;-79
2021/05/05 01:35:47;;;;;;;1.52;1.27;;;;;;;16.00;36.15;100822.81;5074412;28;20027;-79
2021/05/05 01:38:13;;;;;;;1.73;1.33;;;;;;;15.99;36.24;100816.50;5073114;28;20044;-80
2021/05/05 01:40:40;;;;;;;1.98;1.02;;;;;;;15.86;36.67;100822.38;5074382;28;20027;-80
2021/05/05 01:43:06;;;;;;;1.65;1.40;;;;;;;15.96;36.49;100819.94;5074360;28;20060;-80
2021/05/05 01:45:33;;;;;;;3.83;1.40;;;;;;;15.95;36.32;100825.81;5073143;28;20438;-79
2021/05/05 01:48:01;;;;;;;4.25;1.42;;;;;;;16.00;36.29;100826.34;5074352;28;20039;-80
2021/05/05 01:50:27;;;;;;;4.13;1.50;;;;;;;15.84;36.78;100828.22;5074276;28;20020;-79
2021/05/05 01:52:53;;;;;;;2.00;1.30;;;;;;;16.03;36.10;100824.88;5072898;28;20094;-79
2021/05/05 01:55:19;;;;;;;1.83;1.10;;;;;;;15.92;36.63;100820.97;5074086;28;20475;-79
2021/05/05 01:57:46;;;;;;;1.85;1.25;;;;;;;15.72;36.90;100826.31;5074063;28;20032;-80
2021/05/05 02:00:16;;;;;;;4.38;1.63;;;;;;;15.75;36.89;100827.56;5071557;28;20087;-80
2021/05/05 02:02:42;;;;;;;5.82;1.60;;;;;;;15.50;37.27;100822.03;5072232;28;20025;-79
2021/05/05 02:05:09;;;;;;;2.72;1.30;;;;;;;15.49;37.27;100825.94;5074020;28;20028;-79
2021/05/05 02:07:35;;;;;;;3.55;1.67;;;;;;;15.05;38.24;100829.56;5073914;28;20017;-80
2021/05/05 02:10:01;;;;;;;2.00;1.25;;;;;;;15.35;37.44;100828.22;5072552;28;20115;-79
2021/05/05 02:12:29;;;;;;;2.03;1.35;;;;;;;15.44;37.12;100820.66;5073763;28;20021;-80
2021/05/05 02:14:55;;;;;;;2.13;1.40;;;;;;;15.42;37.18;100822.16;5056073;28;20119;-80
2021/05/05 02:17:20;;;;;;;2.78;1.40;;;;;;;15.37;37.01;100823.16;5073692;28;20356;-80
2021/05/05 02:19:46;;;;;;;6.63;1.75;;;;;;;15.42;37.41;100825.69;5072364;28;20504;-80
2021/05/05 02:22:12;;;;;;;7.03;2.00;;;;;;;15.34;37.08;100810.09;5072310;28;20020;-80
2021/05/05 02:24:38;;;;;;;5.57;1.80;;;;;;;15.34;37.04;100818.34;5073491;28;20505;-79
2021/05/05 02:27:05;;;;;;;4.07;1.75;;;;;;;15.35;37.03;100814.44;5072473;28;20029;-80
2021/05/05 02:29:31;;;;;;;4.22;1.33;;;;;;;15.43;36.83;100818.25;5072120;28;20020;-80
2021/05/05 02:31:57;;;;;;;4.75;1.48;;;;;;;15.37;36.75;100816.84;5072107;28;20025;-80
2021/05/05 02:34:22;;;;;;;2.13;1.52;;;;;;;15.10;37.28;100818.31;5073373;28;20024;-79
2021/05/05 02:36:49;;;;;;;2.45;1.30;;;;;;;15.31;36.79;100818.22;5072976;28;20080;-79
2021/05/05 02:39:14;;;;;;;3.38;1.60;;;;;;;15.24;36.80;100827.03;5073239;28;20098;-80
2021/05/05 02:41:41;;;;;;;4.85;2.17;;;;;;;15.22;36.81;100830.13;5073290;28;20056;-81
2021/05/05 02:44:07;;;;;;;2.80;1.40;;;;;;;15.22;36.76;100841.16;5105813;28;20461;-80
2021/05/05 02:46:33;;;;;;;5.78;1.73;;;;;;;15.15;36.95;100840.91;5071561;28;20117;-79
2021/05/05 02:48:59;;;;;;;3.28;1.73;;;;;;;15.14;36.94;100838.50;5073082;28;20466;-80
2021/05/05 02:51:25;;;;;;;4.22;1.70;;;;;;;15.09;37.04;100850.53;5071783;28;20039;-80
2021/05/05 02:53:50;;;;;;;9.20;2.97;;;;;;;14.99;37.26;100849.00;5073056;28;20031;-80
2021/05/05 02:56:16;;;;;;;4.53;2.08;;;;;;;14.98;37.25;100850.16;5072954;28;20032;-79
2021/05/05 02:58:42;;;;;;;5.47;1.60;;;;;;;14.86;37.51;100858.38;5072936;28;20028;-80
2021/05/05 03:01:08;;;;;;;5.63;1.70;;;;;;;14.89;37.45;100857.72;5073027;28;20493;-80
2021/05/05 03:03:34;;;;;;;4.25;2.20;;;;;;;14.99;36.73;100848.22;5073038;28;20036;-79
2021/05/05 03:05:59;;;;;;;3.53;1.55;;;;;;;14.95;37.10;100853.56;5071582;28;20040;-79
2021/05/05 03:08:25;;;;;;;4.63;1.65;;;;;;;14.84;37.41;100852.41;5071603;28;20390;-79
2021/05/05 03:10:51;;;;;;;3.88;1.63;;;;;;;14.91;37.16;100858.16;5071622;28;20025;-80
2021/05/05 03:13:17;;;;;;;4.07;1.73;;;;;;;14.90;37.10;100856.56;5071487;28;20032;-79
2021/05/05 03:15:42;;;;;;;3.90;1.63;;;;;;;14.87;37.03;100851.72;5072806;28;20467;-80
2021/05/05 03:18:08;;;;;;;3.85;1.52;;;;;;;14.90;36.96;100867.56;5072633;28;20033;-79
2021/05/05 03:20:34;;;;;;;5.53;1.80;;;;;;;14.88;37.20;100871.78;5072653;28;20035;-80
2021/05/05 03:23:00;;;;;;;8.13;1.88;;;;;;;14.71;37.46;100875.50;5072675;28;20075;-80
2021/05/05 03:25:26;;;;;;;3.35;1.65;;;;;;;14.83;37.10;100872.00;5071321;28;20024;-79
2021/05/05 03:27:51;;;;;;;2.83;1.50;;;;;;;14.84;36.97;100877.16;5071325;28;20510;-80
2021/05/05 03:30:19;;;;;;;4.05;1.98;;;;;;;14.81;37.30;100879.78;5072641;28;20466;-80
2021/05/05 03:32:45;;;;;;;3.10;1.33;;;;;;;14.84;37.34;100870.88;5071290;28;20037;-80
2021/05/05 03:35:11;;;;;;;4.43;1.48;;;;;;;14.84;37.11;100877.16;5071500;28;20039;-80
2021/05/05 03:37:37;;;;;;;7.10;1.83;;;;;;;14.79;37.23;100865.56;5070996;28;20048;-80
2021/05/05 03:40:08;;;;;;;2.83;1.42;;;;;;;14.89;37.18;100860.47;5071218;28;20031;-79
2021/05/05 03:42:34;;;;;;;3.53;1.45;;;;;;;14.92;37.02;100858.97;5071254;28;20101;-79
2021/05/05 03:45:01;;;;;;;2.75;1.38;;;;;;;14.92;36.96;100865.28;5072436;28;20510;-80
2021/05/05 03:47:27;;;;;;;3.17;1.55;;;;;;;14.92;36.90;100857.03;5072456;28;20036;-80
2021/05/05 03:49:52;;;;;;;10.30;2.55;;;;;;;14.88;37.00;100858.03;5072498;28;20024;-80
2021/05/05 03:52:18;;;;;;;6.80;2.60;;;;;;;14.93;36.94;100853.13;5072378;28;20025;-80
2021/05/05 03:54:44;;;;;;;3.05;1.35;;;;;;;14.93;36.86;100849.56;5071138;28;20490;-80
2021/05/05 03:57:10;;;;;;;2.05;0.93;;;;;;;14.94;36.78;100849.22;5071062;28;20082;-80
2021/05/05 03:59:35;;;;;;;6.13;2.00;;;;;;;15.00;36.71;100849.81;5075291;28;20078;-80
2021/05/05 04:02:01;;;;;;;14.40;3.28;;;;;;;14.98;36.90;100846.59;5076391;28;20027;-81
2021/05/05 04:04:27;;;;;;;7.25;1.48;;;;;;;14.94;36.93;100848.41;5076214;28;20048;-79
2021/05/05 04:06:52;;;;;;;4.47;1.50;;;;;;;15.05;36.68;100848.81;5074966;28;20027;-79
2021/05/05 04:09:18;;;;;;;4.60;1.50;;;;;;;15.00;36.82;100858.06;5075241;28;20024;-80
2021/05/05 04:11:44;;;;;;;3.63;1.40;;;;;;;15.09;36.64;100852.47;5075390;28;20032;-79
2021/05/05 04:14:09;;;;;;;5.20;1.40;;;;;;;15.14;36.43;100853.06;5074804;28;20074;-80
2021/05/05 04:16:35;;;;;;;8.25;2.00;;;;;;;15.04;36.69;100853.50;5076051;28;20028;-80
2021/05/05 04:19:01;;;;;;;6.38;2.00;;;;;;;14.93;36.89;100861.38;5075905;28;20467;-79
2021/05/05 04:21:27;;;;;;;6.45;2.05;;;;;;;15.02;37.04;100846.72;5076103;28;20016;-80
2021/05/05 04:23:53;;;;;;;12.27;2.40;;;;;;;15.01;36.93;100851.41;5074599;28;20481;-80
2021/05/05 04:26:18;;;;;;;2.83;1.20;;;;;;;15.04;36.74;100853.50;5075860;28;20047;-80
2021/05/05 04:28:45;;;;;;;8.13;2.15;;;;;;;15.02;36.68;100857.72;5075765;28;20082;-80
2021/05/05 04:31:10;;;;;;;5.93;1.75;;;;;;;15.11;36.57;100864.75;5075808;28;20539;-80
2021/05/05 04:33:36;;;;;;;4.63;1.60;;;;;;;15.02;36.74;100871.47;5075695;28;20020;-79
2021/05/05 04:36:02;;;;;;;10.25;2.80;;;;;;;15.04;36.66;100870.03;5075375;28;20477;-80
2021/05/05 04:38:27;;;;;;;2.95;1.30;;;;;;;15.02;36.82;100874.25;5074415;28;20081;-80
2021/05/05 04:40:53;;;;;;;3.58;1.70;;;;;;;15.02;36.58;100875.03;5075679;28;20024;-81
2021/05/05 04:43:18;;;;;;;5.85;1.88;;;;;;;15.01;36.55;100865.19;5075501;28;20028;-80
2021/05/05 04:45:44;;;;;;;32.70;6.80;;;;;;;14.87;36.83;100862.72;5068506;28;20021;-80
2021/05/05 04:48:11;;;;;;;10.40;1.58;;;;;;;14.96;36.51;100862.63;5055484;28;20037;-80
2021/05/05 04:50:36;;;;;;;6.43;1.88;;;;;;;14.91;36.71;100871.13;5054142;28;20029;-80
2021/05/05 04:53:02;;;;;;;4.00;1.75;;;;;;;14.91;36.38;100858.16;5054288;28;20442;-80
2021/05/05 04:55:28;;;;;;;5.60;2.20;;;;;;;14.86;36.80;100866.63;5054105;28;20027;-80
2021/05/05 04:57:53;;;;;;;7.85;2.70;;;;;;;14.91;36.80;100866.41;5054000;28;20133;-82
2021/05/05 05:00:20;;;;;;;12.93;2.50;;;;;;;14.84;36.67;100868.91;5055309;28;20029;-80
2021/05/05 05:02:45;;;;;;;15.63;3.65;;;;;;;14.77;36.92;100876.91;5055213;28;20082;-80
2021/05/05 05:05:11;;;;;;;8.30;3.17;;;;;;;14.64;37.17;100876.03;5055275;28;20468;-81
2021/05/05 05:07:37;;;;;;;8.25;1.98;;;;;;;14.70;36.93;100869.19;5053797;28;20025;-82
2021/05/05 05:10:04;;;;;;;10.25;1.88;;;;;;;14.77;36.80;100876.09;5053280;28;20033;-80
2021/05/05 05:12:30;;;;;;;7.53;1.55;;;;;;;14.75;36.86;100875.66;5037119;28;20033;-80
2021/05/05 05:14:56;;;;;;;8.57;1.73;;;;;;;14.68;37.09;100878.94;5054825;28;20032;-80
2021/05/05 05:17:22;;;;;;;7.72;2.60;;;;;;;14.71;37.04;100881.00;5053575;28;20036;-80
2021/05/05 05:19:48;;;;;;;22.80;3.60;;;;;;;14.79;37.31;100882.88;5055040;28;20025;-81
2021/05/05 05:22:14;;;;;;;4.47;1.20;;;;;;;14.83;36.92;100883.81;5054670;28;20072;-81
2021/05/05 05:24:40;;;;;;;6.80;1.13;;;;;;;14.82;37.16;100892.41;5054673;28;20151;-81
2021/05/05 05:27:06;;;;;;;13.15;2.40;;;;;;;14.80;37.31;100897.44;5057605;28;20462;-77
2021/05/05 05:29:31;;;;;;;2.92;1.13;;;;;;;14.85;37.28;100900.78;5071938;28;20478;-80
2021/05/05 05:31:57;;;;;;;6.60;1.17;;;;;;;15.02;36.90;100891.56;5054550;28;20059;-80
2021/05/05 05:34:23;;;;;;;3.55;1.40;;;;;;;15.18;36.67;100891.72;5053382;28;20096;-81
2021/05/05 05:36:48;;;;;;;6.25;1.40;;;;;;;15.21;36.66;100888.28;5053022;28;20049;-79
2021/05/05 05:39:14;;;;;;;11.70;2.53;;;;;;;15.39;36.75;100900.72;5056950;28;20032;-80
2021/05/05 05:41:40;;;;;;;3.25;1.75;;;;;;;15.55;36.64;100884.31;5057230;28;20024;-80
2021/05/05 05:44:06;;;;;;;7.85;2.33;;;;;;;15.51;36.59;100892.47;5058619;28;20078;-81
2021/05/05 05:46:32;;;;;;;8.43;2.00;;;;;;;15.75;36.50;100899.19;5057823;28;20032;-80
2021/05/05 05:48:57;;;;;;;5.05;1.90;;;;;;;15.71;36.62;100906.50;5068538;28;20044;-80
2021/05/05 05:51:23;;;;;;;6.35;1.63;;;;;;;15.78;36.48;100913.06;5072261;28;20060;-80
2021/05/05 05:53:49;;;;;;;2.85;1.25;;;;;;;15.65;36.47;100919.72;5074212;28;20025;-79
2021/05/05 05:56:15;;;;;;;11.18;2.05;;;;;;;15.68;36.63;100915.47;5074027;28;20028;-80
2021/05/05 05:58:40;;;;;;;16.92;3.58;;;;;;;15.62;36.74;100920.41;5073981;28;20119;-80
2021/05/05 06:01:06;;;;;;;4.40;1.40;;;;;;;15.80;36.43;100929.28;5072269;28;20048;-80
2021/05/05 06:03:32;;;;;;;18.85;3.80;;;;;;;15.41;36.92;100925.94;5073507;28;20482;-79
2021/05/05 06:05:58;;;;;;;3.00;1.05;;;;;;;15.71;35.98;100931.31;5073999;28;20546;-80
2021/05/05 06:08:23;;;;;;;5.72;1.80;;;;;;;15.56;36.19;100935.50;5073923;28;20036;-80
2021/05/05 06:10:49;;;;;;;12.75;1.80;;;;;;;15.45;36.36;100934.34;5072566;28;20020;-79
2021/05/05 06:13:16;;;;;;;2.55;1.23;;;;;;;15.46;36.19;100945.00;5067151;28;20033;-80
2021/05/05 06:15:41;;;;;;;4.05;1.27;;;;;;;15.52;36.19;100942.84;5056905;28;20471;-81
2021/05/05 06:18:07;;;;;;;13.40;2.05;;;;;;;15.57;36.43;100944.56;5056948;28;20067;-80
2021/05/05 06:20:34;;;;;;;6.75;1.85;;;;;;;15.65;36.45;100941.75;5056127;28;20052;-80
2021/05/05 06:22:59;;;;;;;15.70;3.83;;;;;;;15.80;36.07;100945.78;5056385;28;20029;-80
2021/05/05 06:25:26;;;;;;;10.02;1.90;;;;;;;15.74;36.54;100949.91;5057581;28;20024;-80
2021/05/05 06:27:52;;;;;;;7.32;1.48;;;;;;;15.84;36.64;100963.22;5056893;28;20059;-80
2021/05/05 06:30:18;;;;;;;12.48;2.85;;;;;;;16.10;36.22;100962.91;5056738;28;20035;-80
2021/05/05 06:32:43;;;;;;;7.15;1.80;;;;;;;16.09;36.46;100966.78;5054626;28;20025;-80
2021/05/05 06:35:10;;;;;;;29.45;6.13;;;;;;;16.27;36.02;100968.19;5055425;28;20879;-80
2021/05/05 06:37:36;;;;;;;9.25;2.08;;;;;;;16.48;36.11;100970.81;5057082;28;20037;-80
2021/05/05 06:40:05;;;;;;;11.13;3.28;;;;;;;16.41;36.16;100976.09;5057315;28;20023;-80
2021/05/05 06:42:31;;;;;;;13.27;2.60;;;;;;;16.14;36.72;100966.59;5056203;28;20062;-80
2021/05/05 06:44:56;;;;;;;5.90;1.85;;;;;;;16.47;35.98;100976.66;5054654;28;20127;-80
2021/05/05 06:47:22;;;;;;;22.75;4.40;;;;;;;16.33;36.41;100975.09;5056351;28;20039;-80
2021/05/05 06:49:48;;;;;;;21.35;4.90;;;;;;;16.35;36.31;100974.72;5054917;28;20599;-80
2021/05/05 06:52:14;;;;;;;9.75;2.90;;;;;;;16.36;36.58;100992.88;5073115;28;20391;-81
2021/05/05 06:54:40;;;;;;;5.93;2.25;;;;;;;16.44;36.30;100980.13;5072391;28;20024;-80
2021/05/05 06:57:07;;;;;;;3.67;1.10;;;;;;;16.51;36.10;100983.91;5055723;28;20036;-80
2021/05/05 06:59:32;;;;;;;8.27;2.88;;;;;;;16.60;35.76;100990.09;5055229;28;20033;-80
2021/05/05 07:01:58;;;;;;;13.32;3.13;;;;;;;16.78;35.67;100992.63;5056839;28;20462;-83
2021/05/05 07:04:24;;;;;;;4.68;1.42;;;;;;;16.68;35.86;100987.53;5057597;28;20028;-79
2021/05/05 07:06:49;;;;;;;11.40;3.08;;;;;;;16.64;36.23;100985.50;5054413;28;20090;-74
2021/05/05 07:09:18;;;;;;;11.77;3.33;;;;;;;16.89;35.72;100985.47;5070034;28;20020;-72
2021/05/05 07:11:43;;;;;;;7.97;1.90;;;;;;;16.96;36.01;100984.88;5073229;28;20101;-71
2021/05/05 07:14:09;;;;;;;9.50;1.65;;;;;;;17.07;35.57;100975.72;5066441;28;20036;-72
2021/05/05 07:16:35;;;;;;;14.77;3.30;;;;;;;17.05;35.63;100980.81;5069810;28;20036;-71
2021/05/05 07:19:02;;;;;;;7.40;2.35;;;;;;;17.06;35.50;100989.88;5065787;28;20024;-75
2021/05/05 07:21:31;;;;;;;5.35;1.70;;;;;;;17.25;35.02;100978.19;5057580;28;20033;-76
2021/05/05 07:23:57;;;;;;;10.77;3.08;;;;;;;17.28;35.18;100985.78;5058901;28;21706;-74
2021/05/05 07:26:28;;;;;;;8.98;2.25;;;;;;;17.25;34.87;100989.25;5061976;28;20479;-76
2021/05/05 07:29:03;;;;;;;4.95;1.52;;;;;;;17.19;35.31;100988.69;5061559;28;20103;-75
2021/05/05 07:31:28;;;;;;;5.07;1.80;;;;;;;17.52;34.69;100982.88;5060832;28;20082;-74
2021/05/05 07:33:55;;;;;;;37.55;4.03;;;;;;;17.72;34.54;100981.06;5053534;28;20033;-79
2021/05/05 07:36:27;;;;;;;11.75;2.15;;;;;;;17.73;34.95;100994.53;5066845;28;20136;-84
2021/05/05 07:49:04;;;;;;;17.90;2.30;;;;;;;18.11;33.75;100993.13;5051859;28;20515;-82
2021/05/05 07:51:30;;;;;;;5.45;1.27;;;;;;;17.88;34.12;100989.38;5051837;28;20052;-90
2021/05/05 07:53:56;;;;;;;11.55;2.50;;;;;;;18.06;33.75;100996.16;5060250;28;20086;-79
2021/05/05 07:56:22;;;;;;;3.50;1.65;;;;;;;17.95;33.94;100987.59;5061723;28;20036;-79
2021/05/05 07:58:47;;;;;;;10.10;1.88;;;;;;;18.24;33.41;100985.53;5068933;28;20119;-79
2021/05/05 08:01:16;;;;;;;4.43;1.40;;;;;;;18.24;33.36;100980.78;5069281;28;20119;-78
2021/05/05 08:03:42;;;;;;;3.67;1.73;;;;;;;18.52;33.21;100979.84;5067169;28;20016;-79
2021/05/05 08:08:36;;;;;;;6.03;1.85;;;;;;;18.60;32.77;100981.63;5066798;28;20028;-80
2021/05/05 08:11:02;;;;;;;4.65;2.13;;;;;;;18.61;32.33;100977.69;5073100;28;20562;-92
2021/05/05 08:13:28;;;;;;;3.92;1.77;;;;;;;18.74;32.38;100986.69;5072089;28;20048;-87
2021/05/05 08:15:55;;;;;;;35.92;6.13;;;;;;;18.59;32.18;100985.56;5072122;28;20504;-82
2021/05/05 08:18:22;;;;;;;18.10;2.97;;;;;;;18.73;32.12;100980.34;5071310;28;20063;-81
2021/05/05 08:20:48;;;;;;;9.93;1.95;;;;;;;19.04;31.96;100982.22;5070228;28;20025;-79
2021/05/05 08:23:16;;;;;;;3.65;1.23;;;;;;;18.71;32.04;100979.09;5070777;28;20025;-89
2021/05/05 08:25:43;;;;;;;7.07;2.13;;;;;;;18.84;31.28;100977.81;5071931;28;20386;-91
2021/05/05 08:28:10;;;;;;;5.28;1.50;;;;;;;19.07;31.38;100981.47;5070704;28;20546;-85
2021/05/05 08:30:35;;;;;;;7.68;1.55;;;;;;;19.04;31.28;100990.50;5071499;28;20024;-91
2021/05/05 08:33:01;;;;;;;3.92;1.25;;;;;;;19.24;31.27;100982.19;5073950;28;20485;-91
2021/05/05 08:35:28;;;;;;;4.55;1.05;;;;;;;19.54;31.06;100979.59;5073543;28;20042;-91
2021/05/05 08:37:53;;;;;;;3.30;0.98;;;;;;;19.93;30.42;100991.41;5072188;28;20052;-86
2021/05/05 08:40:20;;;;;;;4.03;1.58;;;;;;;20.02;29.88;100977.28;5073393;28;20485;-91
2021/05/05 08:42:46;;;;;;;6.53;2.78;;;;;;;20.00;30.13;100991.50;5073343;28;20033;-91
2021/05/05 08:45:21;;;;;;;5.03;1.58;;;;;;;20.00;30.13;100982.41;5075503;28;20071;-89
2021/05/05 08:47:55;;;;;;;4.20;1.90;;;;;;;19.99;29.71;100994.66;5076545;28;20025;-90
2021/05/05 08:50:24;;;;;;;9.82;2.22;;;;;;;20.16;29.67;100999.69;5075867;28;20032;-89
2021/05/05 08:52:50;;;;;;;6.18;1.85;;;;;;;19.93;29.96;100991.41;5075505;28;20432;-82
2021/05/05 08:55:19;;;;;;;6.28;1.77;;;;;;;19.81;29.82;101003.50;5076073;28;20079;-79
2021/05/05 08:57:46;;;;;;;2.58;1.33;;;;;;;19.64;29.32;101001.97;5075445;28;20447;-79
2021/05/05 09:00:15;;;;;;;3.00;1.23;;;;;;;19.60;29.48;100994.78;5074829;28;20029;-78
2021/05/05 09:02:41;;;;;;;4.32;1.10;;;;;;;20.17;28.91;100988.22;5073157;28;20029;-84
2021/05/05 09:05:11;;;;;;;4.03;1.17;;;;;;;19.93;29.43;100994.16;5072619;28;20021;-79
2021/05/05 09:07:37;;;;;;;;;;;;;;;20.26;28.87;100974.13;5076741;28;20024;-87
2021/05/05 09:10:09;;;;;;;7.63;1.88;;;;;;;20.55;28.43;100988.41;5076781;28;19920;-92
2021/05/05 09:12:38;;;;;;;2.65;1.10;;;;;;;20.64;28.25;100986.19;5076475;28;20017;-90
2021/05/05 09:15:08;;;;;;;5.75;1.67;;;;;;;20.67;28.64;100988.22;5076082;28;20029;-90
2021/05/05 09:17:36;;;;;;;8.02;3.10;;;;;;;20.85;28.38;100994.78;5069402;28;20064;-88
2021/05/05 09:20:04;;;;;;;5.80;1.58;;;;;;;21.03;27.62;100993.06;5075529;28;20501;-88
2021/05/05 09:22:48;;;;;;;6.30;1.38;;;;;;;21.00;27.89;101004.09;5067714;28;20059;-87
2021/05/05 09:25:34;;;;;;;12.05;2.22;;;;;;;21.20;27.84;100985.31;5072756;28;20068;-87
2021/05/05 09:28:11;;;;;;;5.18;1.40;;;;;;;20.59;27.82;100992.06;5052300;28;20033;-82
2021/05/05 09:30:42;;;;;;;3.15;1.05;;;;;;;21.04;27.40;100994.66;5074568;28;20107;-89
2021/05/05 09:33:08;;;;;;;3.25;1.40;;;;;;;21.09;27.48;100989.97;5072311;28;20079;-88
2021/05/05 09:35:40;;;;;;;9.57;1.98;;;;;;;21.13;27.20;100996.34;5075256;28;20039;-84
2021/05/05 09:38:09;;;;;;;9.05;2.15;;;;;;;21.25;27.08;100993.31;5075488;28;20044;-90
2021/05/05 09:40:36;;;;;;;5.85;1.50;;;;;;;21.48;26.89;100999.56;5073990;28;20094;-85
2021/05/05 09:43:17;;;;;;;4.03;1.10;;;;;;;21.12;26.04;100992.75;5074890;28;20024;-89
2021/05/05 09:45:44;;;;;;;19.20;2.88;;;;;;;21.77;26.63;100988.75;5077256;28;20022;-90
2021/05/05 09:48:10;;;;;;;4.57;1.35;;;;;;;21.76;26.82;100989.88;5075842;28;20486;-89
2021/05/05 09:50:39;;;;;;;4.82;1.75;;;;;;;21.71;27.38;100993.84;5075484;28;20021;-89
2021/05/05 09:53:24;;;;;;;2.90;1.00;;;;;;;21.50;27.16;100994.41;5072451;28;20028;-80
2021/05/05 09:55:59;;;;;;;4.28;1.30;;;;;;;20.83;27.67;100996.34;5069231;28;20032;-88
2021/05/05 09:58:28;;;;;;;2.92;1.08;;;;;;;21.24;27.37;100997.28;5075060;28;20035;-88
2021/05/05 10:01:09;;;;;;;6.32;2.47;;;;;;;21.39;27.04;100990.75;5074116;28;20131;-88
2021/05/05 10:03:42;;;;;;;5.35;1.50;;;;;;;21.57;27.23;100997.28;5064421;28;20068;-86
2021/05/05 10:06:20;;;;;;;8.57;2.03;;;;;;;21.85;27.12;100987.63;5060101;28;20115;-82
2021/05/05 10:08:50;;;;;;;6.45;1.88;;;;;;;22.12;26.68;100991.84;5071007;28;20035;-87
2021/05/05 10:11:16;;;;;;;;;;;;;;;22.04;25.22;100992.94;5075752;28;20033;-89
2021/05/05 10:13:43;;;;;;;2.47;1.17;;;;;;;22.20;25.57;100950.94;5074222;28;19913;-88
2021/05/05 10:16:09;;;;;;;3.17;1.13;;;;;;;21.96;25.23;100987.69;5075145;28;20017;-88
2021/05/05 10:18:35;;;;;;;8.18;1.58;;;;;;;21.97;25.22;100992.06;5071345;28;20036;-81
2021/05/05 10:21:01;;;;;;;4.35;1.13;;;;;;;21.81;25.45;100997.91;5074946;28;20024;-88
2021/05/05 10:23:26;;;;;;;2.80;0.90;;;;;;;21.54;25.48;100991.69;5074520;28;20470;-88
2021/05/05 10:25:52;;;;;;;2.45;1.10;;;;;;;21.68;25.43;100993.78;5074221;28;20487;-89
2021/05/05 10:28:18;;;;;;;5.50;1.30;;;;;;;21.64;26.08;101004.09;5074580;28;20075;-85
2021/05/05 10:30:44;;;;;;;3.17;0.90;;;;;;;21.59;25.76;100994.91;5073983;28;20129;-89
2021/05/05 10:33:19;;;;;;;3.45;1.35;;;;;;;21.50;25.29;100983.28;5074331;28;20024;-85
2021/05/05 10:35:45;;;;;;;5.70;1.67;;;;;;;21.36;25.16;100983.13;5058439;28;20139;-84
2021/05/05 10:38:33;;;;;;;3.80;1.27;;;;;;;21.73;24.48;100985.09;5074199;28;20044;-89
2021/05/05 10:41:11;;;;;;;29.55;4.90;;;;;;;21.78;24.07;100968.09;5073867;28;20024;-84
2021/05/05 10:43:53;;;;;;;6.03;1.40;;;;;;;22.28;23.81;100976.84;5072268;28;20127;-90
2021/05/05 10:46:29;;;;;;;3.60;1.05;;;;;;;21.81;22.92;100970.09;5074810;28;20025;-89
2021/05/05 10:49:17;;;;;;;3.05;1.40;;;;;;;22.42;22.79;100965.81;5073034;28;20093;-90
2021/05/05 10:51:49;;;;;;;9.73;2.15;;;;;;;22.77;22.73;100964.41;5072069;28;20021;-90
2021/05/05 10:54:16;;;;;;;4.75;2.10;;;;;;;23.28;23.28;100949.50;5072428;28;20536;-90
2021/05/05 10:56:46;;;;;;;5.20;1.67;;;;;;;23.18;22.64;100968.56;5073816;28;20020;-91
2021/05/05 10:59:12;;;;;;;6.90;1.80;;;;;;;22.84;22.08;100968.03;5072919;28;20039;-90
2021/05/05 11:01:45;;;;;;;3.15;1.20;;;;;;;23.22;22.49;100972.19;5074465;28;20024;-87
2021/05/05 11:04:15;;;;;;;7.32;2.30;;;;;;;23.44;22.60;100964.69;5073333;28;20119;-85
2021/05/05 11:06:41;;;;;;;6.57;1.58;;;;;;;23.57;22.52;100967.88;5074257;28;20024;-87
2021/05/05 11:09:13;;;;;;;3.53;1.23;;;;;;;23.58;22.55;100974.25;5073413;28;20020;-88
2021/05/05 11:11:40;;;;;;;5.47;1.85;;;;;;;23.53;22.49;100967.88;5074410;28;20371;-88
2021/05/05 11:14:06;;;;;;;4.57;0.75;;;;;;;22.66;21.88;100970.72;5073267;28;20024;-86
2021/05/05 11:17:05;;;;;;;10.27;1.92;;;;;;;23.05;22.31;100963.75;5072681;28;20107;-87
2021/05/05 11:19:40;;;;;;;2.88;1.30;;;;;;;23.28;22.30;100969.03;5073533;28;20033;-87
2021/05/05 11:22:18;;;;;;;6.15;1.50;;;;;;;23.51;22.69;100969.47;5071823;28;20044;-89
2021/05/05 11:24:44;;;;;;;5.75;1.45;;;;;;;23.55;22.92;100975.84;5073680;28;20063;-81
2021/05/05 11:27:11;;;;;;;6.20;2.15;;;;;;;23.07;22.03;100980.91;5073348;28;20155;-88
2021/05/05 11:29:53;;;;;;;3.80;1.98;;;;;;;23.05;23.55;100970.16;5071824;28;20058;-84
2021/05/05 11:32:18;;;;;;;7.88;2.25;;;;;;;22.58;24.58;100979.41;5073253;28;20463;-79
2021/05/05 11:34:46;;;;;;;3.17;1.40;;;;;;;22.92;24.81;100985.59;5072796;28;20029;-81
2021/05/05 11:37:21;;;;;;;5.13;1.50;;;;;;;23.04;25.73;100984.44;5070600;28;20398;-85